Portada
METAR-TAF:

METAR-TAF

Aeroports :

Abakan, Rússia

latitud: 53-45N, longitud: 091-24E, altitud: 245 m

Observació

L'informe es va fer fa 26 minuts, a les 18:00 UTC
Vent 2 kt del Oest/Nord-Oest
Temperatura 16°C
Humitat 88%
Pressió 1009 hPa
Visibilitat 10 km o més
sense núvols per sota de 1500 mi sense presència de cumulonimbus.

METAR: UNAA 111800Z 29001MPS CAVOK 16/14 Q1009 R02/090065 NOSIG RMK QFE734

Hora: 01:26 (18:26 UTC)

Pronòstic

L'informe es va fer fa 1 hora i 34 minuts, a les 16:52 UTC
Pronòstic vàlid del 11 a les 18 UTC al 12 a les 18 UTC
Vent 6 kt del Nord
Visibilitat 10 km o més
Núvols disperses a una alçada de 4000 ft
Temporalment
l' 11 a les 18 UTC al 11 a les 24 UTC
Visibilitat: 3100 m
boirina

TAF: UNAA 111652Z 1118/1218 36003MPS 9999 SCT040 TEMPO 1118/1124 3100 BR

Observacions i pronòstics meteorològics de més de 4000 aeroports (METAR i TAF).

Les estacions disponibles són els punts grocs i vermells al mapa.

Posi el ratolí al punt desitjat per veure el nom de l'estació.

Feu clic per veure les observacions i els pronòstics meteorològics.

Per canviar el mapa: feu clic els botons verds amb una creu de color negre per apropar; al botó verd amb un guió per allunyar la imatge; o en les fletxes verdes per a mapes adjacents.


METAR-TAF: